Time;durP1;ratioP1;P1;durP2;ratioP2;P2;SDS_P1;SDS_P2;PMS_P1;PMS_P2;Temp;Humidity;BMP_temperature;BMP_pressure;BME280_temperature;BME280_humidity;BME280_pressure;Samples;Min_cycle;Max_cycle;Signal;HPM_P1;HPM_P2
2022/12/06 00:02:00;;;;;;;1.17;0.80;;;20.70;46.40;;;;;;4977880;28;20038;-60
2022/12/06 00:04:26;;;;;;;1.00;0.90;;;20.70;46.30;;;;;;4993600;28;20044;-61
2022/12/06 00:06:51;;;;;;;0.65;0.50;;;20.70;46.30;;;;;;4996701;28;20374;-60
2022/12/06 00:09:26;;;;;;;0.82;0.80;;;20.70;46.30;;;;;;4993762;28;20030;-60
2022/12/06 00:11:52;;;;;;;0.85;0.70;;;20.70;46.20;;;;;;4993313;28;20042;-60
2022/12/06 00:14:19;;;;;;;1.77;0.90;;;20.70;46.30;;;;;;4993444;28;20026;-60
2022/12/06 00:16:45;;;;;;;1.00;0.70;;;20.60;46.30;;;;;;4994225;28;20046;-59
2022/12/06 00:19:16;;;;;;;0.80;0.80;;;20.60;46.20;;;;;;4993017;28;20726;-59
2022/12/06 00:21:42;;;;;;;1.00;0.90;;;20.60;46.20;;;;;;4994130;28;20038;-59
2022/12/06 00:24:11;;;;;;;0.50;0.50;;;20.60;46.20;;;;;;4993392;28;20053;-60
2022/12/06 00:26:39;;;;;;;0.85;0.85;;;20.60;46.20;;;;;;5007885;28;20041;-61
2022/12/06 00:29:06;;;;;;;1.13;0.82;;;20.60;46.20;;;;;;4994014;28;20088;-60
2022/12/06 00:31:33;;;;;;;1.48;0.70;;;20.50;46.10;;;;;;4996050;28;20050;-59
2022/12/06 00:33:59;;;;;;;1.15;0.70;;;20.50;46.10;;;;;;4992621;28;20042;-59
2022/12/06 00:36:28;;;;;;;0.88;0.65;;;20.50;46.10;;;;;;4999973;28;20125;-59
2022/12/06 00:38:54;;;;;;;1.30;0.70;;;20.50;46.10;;;;;;4994907;28;20165;-61
2022/12/06 00:41:23;;;;;;;0.60;0.60;;;20.50;46.10;;;;;;4993452;28;20118;-59
2022/12/06 00:43:50;;;;;;;1.00;0.93;;;20.50;46.00;;;;;;4994272;28;20066;-59
2022/12/06 00:46:19;;;;;;;0.73;0.73;;;20.50;46.00;;;;;;4993960;28;20609;-60
2022/12/06 00:48:46;;;;;;;1.08;0.80;;;20.50;46.00;;;;;;4993805;28;20089;-60
2022/12/06 00:51:13;;;;;;;0.75;0.75;;;20.40;46.00;;;;;;4993161;28;20126;-59
2022/12/06 00:53:38;;;;;;;0.80;0.80;;;20.40;46.00;;;;;;4993097;28;20422;-59
2022/12/06 00:56:04;;;;;;;0.98;0.70;;;20.40;46.00;;;;;;4993467;28;20044;-59
2022/12/06 00:58:30;;;;;;;0.63;0.63;;;20.40;46.00;;;;;;4993615;28;20129;-59
2022/12/06 01:01:07;;;;;;;1.80;0.80;;;20.30;45.90;;;;;;4993966;28;20740;-59
2022/12/06 01:03:33;;;;;;;0.70;0.70;;;20.40;45.90;;;;;;4995558;28;20125;-61
2022/12/06 01:06:06;;;;;;;0.60;0.60;;;20.30;45.90;;;;;;4993649;28;20149;-59
2022/12/06 01:08:33;;;;;;;1.27;1.00;;;20.30;45.90;;;;;;4991929;28;20053;-60
2022/12/06 01:10:59;;;;;;;1.88;0.93;;;20.30;45.90;;;;;;4993531;28;20041;-59
2022/12/06 01:13:25;;;;;;;0.82;0.82;;;20.30;46.00;;;;;;4993000;28;20034;-60
2022/12/06 01:15:50;;;;;;;1.45;1.00;;;20.30;45.90;;;;;;4993209;28;20041;-60
2022/12/06 01:18:16;;;;;;;1.30;0.95;;;20.30;45.90;;;;;;4992618;28;20619;-60
2022/12/06 01:20:42;;;;;;;2.08;1.20;;;20.20;45.90;;;;;;4992688;28;20034;-60
2022/12/06 01:23:07;;;;;;;1.20;1.10;;;20.20;45.90;;;;;;4993550;28;20609;-60
2022/12/06 01:25:33;;;;;;;1.10;1.00;;;20.20;45.80;;;;;;4992199;28;20046;-60
2022/12/06 01:27:59;;;;;;;1.30;1.08;;;20.20;45.90;;;;;;4989585;28;20038;-59
2022/12/06 01:30:24;;;;;;;2.00;1.20;;;20.20;45.90;;;;;;4990307;28;20037;-60
2022/12/06 01:32:50;;;;;;;1.25;1.02;;;20.10;45.80;;;;;;4990569;28;20069;-60
2022/12/06 01:35:16;;;;;;;1.00;1.00;;;20.10;45.90;;;;;;4990237;28;20049;-59
2022/12/06 01:37:41;;;;;;;1.70;1.20;;;20.10;45.90;;;;;;4990199;28;20054;-60
2022/12/06 01:40:08;;;;;;;1.30;1.20;;;20.10;45.80;;;;;;4992400;28;20061;-60
2022/12/06 01:42:33;;;;;;;1.33;1.17;;;20.10;45.80;;;;;;4982712;28;20058;-59
2022/12/06 01:45:00;;;;;;;1.73;1.05;;;20.10;45.90;;;;;;4993740;28;20103;-60
2022/12/06 01:47:28;;;;;;;1.77;1.10;;;20.10;45.80;;;;;;4992676;28;20046;-59
2022/12/06 01:50:05;;;;;;;1.05;0.90;;;20.10;45.80;;;;;;4993406;28;20074;-60
2022/12/06 01:52:47;;;;;;;1.90;1.15;;;20.10;45.90;;;;;;4994394;28;20041;-60
2022/12/06 01:55:14;;;;;;;1.52;1.10;;;20.10;45.90;;;;;;4991380;28;20486;-61
2022/12/06 01:57:40;;;;;;;1.70;1.20;;;20.00;45.70;;;;;;4990947;28;20497;-59
2022/12/06 02:00:07;;;;;;;1.02;0.90;;;20.00;45.70;;;;;;4992033;28;20084;-59
2022/12/06 02:02:33;;;;;;;1.45;1.08;;;20.00;45.80;;;;;;4992978;28;20046;-61
2022/12/06 02:05:00;;;;;;;1.80;1.00;;;20.00;45.80;;;;;;4990523;28;20041;-59
2022/12/06 02:07:26;;;;;;;1.05;0.82;;;20.00;45.70;;;;;;4991192;28;20401;-59
2022/12/06 02:09:53;;;;;;;1.73;1.05;;;20.00;45.70;;;;;;4991904;28;20046;-59
2022/12/06 02:12:18;;;;;;;0.95;0.70;;;20.00;45.70;;;;;;4991274;28;20077;-59
2022/12/06 02:14:49;;;;;;;2.05;0.80;;;19.90;45.60;;;;;;4991491;28;20157;-59
2022/12/06 02:17:29;;;;;;;1.92;1.05;;;20.00;45.60;;;;;;4989176;28;20121;-59
2022/12/06 02:20:04;;;;;;;0.90;0.80;;;19.90;45.60;;;;;;4991941;28;20045;-60
2022/12/06 02:22:41;;;;;;;1.33;0.90;;;19.90;45.60;;;;;;4993159;28;20512;-59
2022/12/06 02:25:25;;;;;;;1.65;0.90;;;19.90;45.70;;;;;;4990288;28;20042;-59
2022/12/06 02:28:17;;;;;;;0.95;0.95;;;19.90;45.60;;;;;;4991492;28;20112;-60
2022/12/06 02:30:46;;;;;;;1.10;0.77;;;19.90;45.60;;;;;;4991946;28;20042;-59
2022/12/06 02:33:22;;;;;;;0.90;0.90;;;19.90;45.60;;;;;;4991111;28;20042;-59
2022/12/06 02:35:56;;;;;;;0.77;0.77;;;19.90;45.60;;;;;;4991057;28;20038;-59
2022/12/06 02:38:52;;;;;;;1.40;1.10;;;19.90;45.60;;;;;;4992005;28;20051;-60
2022/12/06 02:41:24;;;;;;;1.13;1.00;;;19.90;45.50;;;;;;4992374;28;20042;-59
2022/12/06 02:43:55;;;;;;;0.52;0.52;;;19.80;45.60;;;;;;4990871;28;20062;-59
2022/12/06 02:46:22;;;;;;;3.35;1.08;;;19.80;45.60;;;;;;4991905;28;20034;-59
2022/12/06 02:48:51;;;;;;;1.30;0.82;;;19.80;45.50;;;;;;4991881;28;20133;-59
2022/12/06 02:51:17;;;;;;;1.08;0.80;;;19.80;45.60;;;;;;4990796;28;20050;-58
2022/12/06 02:53:48;;;;;;;0.98;0.80;;;19.80;46.20;;;;;;4991109;28;20046;-59
2022/12/06 02:56:16;;;;;;;1.75;0.70;;;19.80;45.50;;;;;;4990207;28;20045;-59
2022/12/06 02:58:41;;;;;;;0.70;0.70;;;19.80;45.50;;;;;;4990940;28;20088;-59
2022/12/06 03:01:25;;;;;;;0.90;0.68;;;19.80;45.50;;;;;;4995437;28;20038;-61
2022/12/06 03:04:12;;;;;;;0.73;0.73;;;19.80;45.40;;;;;;4989444;28;20041;-60
2022/12/06 03:06:43;;;;;;;3.70;1.52;;;19.70;45.40;;;;;;4991954;28;20050;-59
2022/12/06 03:09:35;;;;;;;1.20;0.80;;;19.70;45.40;;;;;;4990209;28;20042;-60
2022/12/06 03:12:16;;;;;;;0.70;0.70;;;19.70;45.40;;;;;;4991032;28;20092;-59
2022/12/06 03:15:10;;;;;;;0.77;0.73;;;19.70;45.50;;;;;;4991377;28;20073;-59
2022/12/06 03:17:35;;;;;;;0.65;0.65;;;19.70;45.40;;;;;;4992377;28;20037;-60
2022/12/06 03:20:09;;;;;;;1.08;0.77;;;19.70;45.40;;;;;;4991725;28;20478;-59
2022/12/06 03:22:37;;;;;;;1.80;0.93;;;19.70;45.40;;;;;;4991634;28;20046;-59
2022/12/06 03:25:05;;;;;;;1.10;0.70;;;19.70;45.40;;;;;;4991548;28;20050;-59
2022/12/06 03:27:33;;;;;;;0.80;0.80;;;19.70;45.40;;;;;;4990764;28;20050;-60
2022/12/06 03:30:03;;;;;;;0.90;0.77;;;19.60;46.10;;;;;;4991531;28;20275;-59
2022/12/06 03:32:32;;;;;;;1.45;0.65;;;19.70;45.30;;;;;;4997204;28;20046;-60
2022/12/06 03:35:02;;;;;;;0.65;0.52;;;19.60;45.30;;;;;;4993450;28;20136;-59
2022/12/06 03:37:31;;;;;;;0.80;0.73;;;19.60;45.20;;;;;;4993878;28;20053;-59
2022/12/06 03:40:20;;;;;;;0.70;0.63;;;19.60;45.30;;;;;;4993282;28;21254;-59
2022/12/06 03:42:47;;;;;;;0.77;0.65;;;19.60;45.20;;;;;;4996267;28;20425;-60
2022/12/06 03:45:13;;;;;;;1.00;0.65;;;19.60;45.30;;;;;;4994570;28;20564;-60
2022/12/06 03:47:59;;;;;;;0.90;0.70;;;19.60;45.30;;;;;;4993609;28;20048;-59
2022/12/06 03:50:49;;;;;;;1.40;0.60;;;19.60;45.20;;;;;;4994403;28;20041;-60
2022/12/06 03:53:16;;;;;;;1.02;0.73;;;19.60;45.20;;;;;;4995996;28;20477;-60
2022/12/06 03:55:43;;;;;;;0.60;0.60;;;19.50;45.30;;;;;;4994928;28;20485;-60
2022/12/06 03:58:09;;;;;;;1.15;0.70;;;19.50;45.30;;;;;;4994226;28;20073;-61
2022/12/06 04:00:35;;;;;;;0.65;0.60;;;19.50;45.20;;;;;;4995149;28;20490;-61
2022/12/06 04:03:00;;;;;;;0.65;0.50;;;19.50;45.20;;;;;;4994038;28;20183;-60
2022/12/06 04:05:26;;;;;;;0.93;0.70;;;19.60;45.20;;;;;;4994388;28;20156;-60
2022/12/06 04:07:51;;;;;;;1.08;0.68;;;19.50;45.20;;;;;;4994793;28;20374;-59
2022/12/06 04:10:17;;;;;;;1.38;0.77;;;19.50;45.20;;;;;;4995700;28;20033;-58
2022/12/06 04:13:01;;;;;;;0.85;0.60;;;19.50;45.20;;;;;;4993665;28;20046;-60
2022/12/06 04:15:29;;;;;;;0.80;0.60;;;19.50;45.10;;;;;;4994387;28;20124;-60
2022/12/06 04:18:14;;;;;;;1.08;0.60;;;19.50;45.10;;;;;;4993900;28;20069;-60
2022/12/06 04:23:31;;;;;;;1.08;0.60;;;19.50;45.10;;;;;;4993061;28;20229;-60
2022/12/06 04:25:57;;;;;;;2.25;0.70;;;19.50;45.10;;;;;;4994954;28;20045;-60
2022/12/06 04:39:21;;;;;;;0.70;0.60;;;19.40;45.10;;;;;;4994578;28;20444;-60
2022/12/06 04:44:32;;;;;;;0.73;0.50;;;19.40;45.10;;;;;;4992722;28;20100;-60
2022/12/06 04:46:58;;;;;;;0.93;0.50;;;19.40;45.10;;;;;;4994329;28;20437;-59
2022/12/06 04:49:25;;;;;;;1.30;0.77;;;19.40;45.10;;;;;;4998207;28;20038;-59
2022/12/06 04:51:51;;;;;;;1.17;0.63;;;19.40;45.10;;;;;;4993273;28;20050;-59
2022/12/06 04:54:17;;;;;;;0.90;0.63;;;19.40;45.10;;;;;;4992707;28;20386;-59
2022/12/06 04:56:42;;;;;;;1.33;0.60;;;19.40;45.10;;;;;;4994626;28;20038;-59
2022/12/06 04:59:08;;;;;;;0.77;0.77;;;19.30;45.00;;;;;;4992536;28;20038;-59
2022/12/06 05:01:33;;;;;;;0.60;0.50;;;19.30;45.10;;;;;;4993915;28;20498;-60
2022/12/06 05:03:59;;;;;;;0.75;0.70;;;19.30;45.10;;;;;;4993333;28;20042;-59
2022/12/06 05:06:25;;;;;;;0.90;0.60;;;19.30;45.20;;;;;;4995733;28;20038;-59
2022/12/06 05:08:50;;;;;;;1.15;0.75;;;19.30;45.10;;;;;;4991823;28;20049;-59
2022/12/06 05:11:16;;;;;;;1.05;0.65;;;19.30;45.80;;;;;;4994566;28;20076;-59
2022/12/06 05:13:42;;;;;;;0.45;0.45;;;19.30;45.10;;;;;;4993279;28;20046;-59
2022/12/06 05:16:08;;;;;;;0.90;0.70;;;19.30;45.10;;;;;;4992566;28;20352;-59
2022/12/06 05:18:34;;;;;;;0.73;0.60;;;19.30;45.10;;;;;;4990706;28;20155;-60
2022/12/06 05:21:21;;;;;;;1.33;0.65;;;19.30;45.10;;;;;;4992573;28;20522;-59
2022/12/06 05:23:48;;;;;;;0.82;0.52;;;19.30;45.00;;;;;;4993261;28;20049;-59
2022/12/06 05:26:16;;;;;;;0.65;0.52;;;19.30;45.10;;;;;;4993474;28;20042;-59
2022/12/06 05:28:42;;;;;;;0.90;0.50;;;19.20;45.00;;;;;;4992233;28;20054;-59
2022/12/06 05:31:09;;;;;;;1.17;1.08;;;19.30;45.10;;;;;;4993542;28;20481;-60
2022/12/06 05:33:35;;;;;;;1.38;0.57;;;19.30;45.10;;;;;;4992837;28;20077;-61
2022/12/06 05:36:08;;;;;;;0.93;0.50;;;19.30;45.20;;;;;;4994681;28;20049;-60
2022/12/06 05:38:34;;;;;;;2.50;0.57;;;19.30;45.20;;;;;;4993578;28;20497;-60
2022/12/06 05:41:00;;;;;;;2.95;0.60;;;19.30;45.20;;;;;;4992462;28;20127;-61
2022/12/06 05:43:28;;;;;;;3.28;0.80;;;19.30;45.30;;;;;;4990912;28;20065;-61
2022/12/06 05:45:54;;;;;;;2.20;0.73;;;19.20;45.30;;;;;;4991397;28;20054;-60
2022/12/06 05:48:20;;;;;;;2.25;0.82;;;19.20;45.60;;;;;;4988005;28;20042;-60
2022/12/06 05:50:46;;;;;;;1.33;0.77;;;19.30;45.40;;;;;;4990172;28;20065;-59
2022/12/06 05:53:12;;;;;;;2.80;0.80;;;19.80;45.10;;;;;;4991740;28;20042;-59
2022/12/06 05:55:37;;;;;;;1.17;0.90;;;20.40;44.10;;;;;;4993814;28;21049;-59
2022/12/06 05:58:03;;;;;;;1.90;0.75;;;21.10;43.00;;;;;;4994388;28;20128;-60
2022/12/06 06:00:29;;;;;;;2.15;0.65;;;21.70;41.90;;;;;;4990863;28;20120;-60
2022/12/06 06:02:54;;;;;;;0.80;0.47;;;22.10;41.00;;;;;;4991130;28;20136;-61
2022/12/06 06:05:20;;;;;;;0.52;0.50;;;22.30;40.60;;;;;;4986938;28;20042;-60
2022/12/06 06:07:46;;;;;;;1.15;0.50;;;22.40;40.40;;;;;;4988046;28;20042;-60
2022/12/06 06:10:12;;;;;;;0.47;0.40;;;22.50;40.40;;;;;;4989859;28;20045;-63
2022/12/06 06:12:38;;;;;;;1.48;0.40;;;22.50;40.40;;;;;;4988292;28;20481;-60
2022/12/06 06:15:06;;;;;;;2.42;0.50;;;22.50;40.30;;;;;;4987467;28;20049;-59
2022/12/06 06:17:33;;;;;;;0.75;0.60;;;22.60;40.20;;;;;;4989669;28;20053;-60
2022/12/06 06:20:01;;;;;;;2.08;0.60;;;22.50;40.20;;;;;;4987182;28;20073;-59
2022/12/06 06:22:27;;;;;;;4.30;0.80;;;22.40;40.30;;;;;;4988306;28;20893;-59
2022/12/06 06:24:53;;;;;;;1.33;0.60;;;22.40;40.40;;;;;;4990041;28;20054;-60
2022/12/06 06:27:18;;;;;;;0.50;0.47;;;22.40;40.50;;;;;;4990492;28;20693;-59
2022/12/06 06:29:44;;;;;;;2.20;0.60;;;22.30;40.50;;;;;;4991459;28;20045;-60
2022/12/06 06:32:09;;;;;;;2.42;0.50;;;22.30;40.50;;;;;;4987988;28;20056;-60
2022/12/06 06:34:35;;;;;;;0.55;0.45;;;22.30;40.50;;;;;;4989627;28;20085;-61
2022/12/06 06:37:00;;;;;;;1.35;0.60;;;22.30;40.50;;;;;;4990389;28;20821;-59
2022/12/06 06:39:26;;;;;;;0.95;0.60;;;22.30;40.50;;;;;;4990335;28;20034;-60
2022/12/06 06:41:52;;;;;;;0.52;0.40;;;22.30;40.40;;;;;;4990408;28;20038;-59
2022/12/06 06:44:17;;;;;;;1.15;0.50;;;22.30;40.40;;;;;;4990103;28;20088;-59
2022/12/06 06:46:43;;;;;;;1.13;0.43;;;22.30;40.30;;;;;;4991826;28;20046;-59
2022/12/06 06:49:10;;;;;;;0.65;0.55;;;22.30;40.30;;;;;;4989517;28;20049;-60
2022/12/06 06:51:36;;;;;;;1.13;0.47;;;22.40;40.30;;;;;;4987766;28;20042;-60
2022/12/06 06:54:01;;;;;;;1.88;0.60;;;22.30;40.20;;;;;;4989756;28;20096;-60
2022/12/06 06:56:27;;;;;;;1.52;0.50;;;22.30;40.20;;;;;;4989914;28;20025;-60
2022/12/06 06:58:53;;;;;;;1.25;0.57;;;22.30;40.30;;;;;;4988168;28;20178;-60
2022/12/06 07:01:21;;;;;;;4.55;0.75;;;22.30;40.30;;;;;;4990430;28;20389;-60
2022/12/06 07:03:47;;;;;;;1.15;0.60;;;22.30;40.40;;;;;;4989143;28;20127;-60
2022/12/06 07:06:13;;;;;;;1.58;0.47;;;22.30;40.50;;;;;;4994177;28;20045;-60
2022/12/06 07:08:40;;;;;;;0.88;0.47;;;22.30;40.50;;;;;;4992268;28;20038;-60
2022/12/06 07:11:07;;;;;;;0.70;0.40;;;22.30;40.60;;;;;;4992480;28;20034;-60
2022/12/06 07:13:33;;;;;;;2.15;0.50;;;22.30;40.60;;;;;;4989153;28;20092;-60
2022/12/06 07:16:01;;;;;;;1.00;0.50;;;22.30;40.60;;;;;;4991842;28;20038;-60
2022/12/06 07:18:27;;;;;;;0.50;0.50;;;22.30;40.60;;;;;;4991852;28;20045;-61
2022/12/06 07:21:02;;;;;;;1.00;0.60;;;22.30;40.60;;;;;;4992274;28;20050;-61
2022/12/06 07:23:28;;;;;;;1.83;0.60;;;22.30;40.50;;;;;;4989411;28;20056;-60
2022/12/06 07:26:11;;;;;;;1.20;0.40;;;22.40;40.60;;;;;;4994113;28;20066;-61
2022/12/06 07:28:38;;;;;;;1.48;0.40;;;22.40;40.60;;;;;;4992106;28;20164;-61
2022/12/06 07:31:24;;;;;;;1.05;0.50;;;22.40;40.60;;;;;;4993211;28;20042;-61
2022/12/06 07:33:55;;;;;;;3.25;0.50;;;22.40;41.30;;;;;;4989256;28;20112;-60
2022/12/06 07:36:22;;;;;;;0.98;0.40;;;22.40;40.70;;;;;;4992882;28;20529;-60
2022/12/06 07:38:50;;;;;;;2.22;0.60;;;22.30;40.60;;;;;;4989889;28;20551;-60
2022/12/06 07:46:48;;;;;;;2.97;0.50;;;22.40;40.60;;;;;;4982823;28;20053;-60
2022/12/06 07:49:16;;;;;;;1.70;0.65;;;22.40;40.60;;;;;;4987362;28;20069;-60
2022/12/06 07:51:43;;;;;;;3.85;0.80;;;22.40;40.50;;;;;;4991586;28;20410;-60
2022/12/06 07:54:09;;;;;;;2.55;0.50;;;22.30;40.50;;;;;;4992253;28;20038;-61
2022/12/06 07:56:34;;;;;;;2.53;1.02;;;22.40;40.50;;;;;;4992303;28;20490;-61
2022/12/06 07:59:00;;;;;;;3.55;0.93;;;22.30;40.40;;;;;;4989858;28;20077;-61
2022/12/06 08:01:26;;;;;;;1.67;0.60;;;22.40;40.30;;;;;;4991915;28;20042;-61
2022/12/06 08:03:54;;;;;;;4.78;0.75;;;22.40;40.20;;;;;;4993108;28;20630;-61
2022/12/06 08:06:20;;;;;;;1.00;0.57;;;22.40;40.10;;;;;;4991825;28;20298;-62
2022/12/06 08:08:45;;;;;;;2.10;0.88;;;22.40;40.10;;;;;;4991057;28;20699;-62
2022/12/06 08:11:11;;;;;;;2.30;0.68;;;22.30;40.10;;;;;;4992645;28;20049;-62
2022/12/06 08:13:37;;;;;;;5.88;0.70;;;22.40;40.00;;;;;;4992758;28;20325;-61
2022/12/06 08:16:08;;;;;;;2.22;0.80;;;22.40;40.00;;;;;;4992697;28;20026;-61
2022/12/06 08:18:34;;;;;;;5.07;0.70;;;22.40;39.80;;;;;;4991283;28;20038;-60
2022/12/06 08:20:59;;;;;;;2.75;0.77;;;22.40;39.80;;;;;;4991845;28;20049;-60
2022/12/06 08:23:26;;;;;;;1.27;0.88;;;22.40;39.80;;;;;;4990803;28;20493;-60
2022/12/06 08:26:11;;;;;;;9.95;1.00;;;22.50;39.70;;;;;;4991042;28;20100;-60
2022/12/06 08:28:37;;;;;;;4.00;0.80;;;22.60;39.50;;;;;;4989342;28;20061;-60
2022/12/06 08:31:22;;;;;;;3.38;1.00;;;22.60;39.50;;;;;;4993031;28;20585;-60
2022/12/06 08:33:48;;;;;;;2.10;0.75;;;22.60;39.30;;;;;;4989356;28;20045;-60
2022/12/06 08:36:18;;;;;;;1.52;0.70;;;22.60;39.30;;;;;;4991768;28;20037;-60
2022/12/06 08:38:44;;;;;;;2.65;0.85;;;22.70;39.20;;;;;;4991071;28;20159;-60
2022/12/06 08:43:56;;;;;;;1.95;0.90;;;22.80;39.10;;;;;;4993854;28;20194;-60
2022/12/06 08:46:22;;;;;;;2.20;0.80;;;22.80;39.10;;;;;;4990455;28;20166;-60
2022/12/06 08:48:48;;;;;;;3.55;0.80;;;22.80;39.00;;;;;;4991818;28;20053;-60
2022/12/06 08:51:13;;;;;;;2.55;0.82;;;22.80;39.00;;;;;;4990672;28;20050;-60
2022/12/06 08:53:39;;;;;;;2.08;0.93;;;22.80;39.00;;;;;;4989857;28;20602;-60
2022/12/06 08:56:05;;;;;;;2.50;0.70;;;22.80;39.70;;;;;;4990603;28;20038;-60
2022/12/06 08:58:30;;;;;;;4.07;0.85;;;22.80;38.90;;;;;;4989803;28;20057;-60
2022/12/06 09:00:56;;;;;;;1.95;0.73;;;22.80;38.90;;;;;;4993569;28;20050;-60
2022/12/06 09:03:22;;;;;;;2.00;0.75;;;22.80;38.80;;;;;;4991828;28;20049;-60
2022/12/06 09:05:47;;;;;;;1.85;0.70;;;22.80;38.80;;;;;;4991038;28;20034;-60
2022/12/06 09:08:13;;;;;;;2.95;0.80;;;22.80;38.80;;;;;;4990294;28;20081;-60
2022/12/06 09:10:39;;;;;;;2.85;0.80;;;22.90;38.80;;;;;;4991041;28;20041;-60
2022/12/06 09:13:04;;;;;;;1.60;0.70;;;22.90;38.60;;;;;;4989383;28;20038;-60
2022/12/06 09:15:30;;;;;;;2.15;1.00;;;23.00;38.50;;;;;;4990777;28;20043;-60
2022/12/06 09:17:56;;;;;;;2.60;0.88;;;23.00;38.50;;;;;;4991721;28;20088;-60
2022/12/06 09:20:21;;;;;;;0.80;0.80;;;23.00;38.40;;;;;;4990929;28;21455;-60
2022/12/06 09:22:47;;;;;;;0.70;0.60;;;23.10;38.30;;;;;;4990594;28;20046;-60
2022/12/06 09:25:12;;;;;;;1.52;0.75;;;23.10;38.30;;;;;;4992221;28;20220;-61
2022/12/06 09:27:38;;;;;;;2.78;1.00;;;23.10;38.20;;;;;;4992080;28;20378;-61
2022/12/06 09:30:05;;;;;;;0.98;0.82;;;23.10;38.20;;;;;;4990434;28;20075;-61
2022/12/06 09:32:31;;;;;;;0.82;0.65;;;23.20;38.30;;;;;;4992420;28;20047;-61
2022/12/06 09:34:57;;;;;;;1.55;0.75;;;23.20;38.40;;;;;;4989222;28;20045;-60
2022/12/06 09:37:22;;;;;;;2.45;0.80;;;23.20;38.50;;;;;;4990262;28;20133;-60
2022/12/06 09:39:55;;;;;;;0.90;0.80;;;23.20;38.70;;;;;;4988872;28;20034;-60
2022/12/06 09:43:02;;;;;;;0.77;0.65;;;23.20;38.80;;;;;;4992292;28;20597;-60
2022/12/06 09:45:46;;;;;;;6.95;1.05;;;23.20;38.70;;;;;;4982597;28;20108;-60
2022/12/06 09:48:44;;;;;;;2.28;0.70;;;23.20;38.90;;;;;;4987815;28;20057;-61
2022/12/06 09:51:18;;;;;;;2.63;0.90;;;23.20;38.80;;;;;;4988368;28;20053;-60
2022/12/06 09:54:24;;;;;;;2.53;0.75;;;23.20;38.80;;;;;;4988348;28;20678;-60
2022/12/06 09:57:01;;;;;;;2.10;0.80;;;23.20;38.80;;;;;;4960111;28;20056;-60
2022/12/06 09:59:29;;;;;;;1.90;0.80;;;23.20;38.90;;;;;;4987476;28;20521;-61
2022/12/06 10:02:29;;;;;;;1.42;0.75;;;23.20;38.90;;;;;;4991104;28;20092;-61
2022/12/06 10:05:16;;;;;;;1.65;0.73;;;23.30;38.80;;;;;;4988214;28;20053;-61
2022/12/06 10:08:04;;;;;;;1.67;0.70;;;23.30;38.80;;;;;;4989269;28;20449;-61
2022/12/06 10:10:52;;;;;;;0.93;0.60;;;23.30;38.80;;;;;;4988799;28;20054;-61
2022/12/06 10:13:54;;;;;;;2.58;0.65;;;23.30;38.70;;;;;;4987483;28;20618;-61
2022/12/06 10:16:20;;;;;;;2.75;0.60;;;23.30;38.80;;;;;;4988378;28;20088;-60
2022/12/06 10:19:10;;;;;;;1.92;1.00;;;23.30;38.80;;;;;;4988060;28;20651;-61
2022/12/06 10:22:00;;;;;;;2.65;0.80;;;23.30;38.90;;;;;;4975068;28;20913;-60
2022/12/06 10:24:34;;;;;;;2.85;0.70;;;23.40;39.00;;;;;;4985270;28;20577;-61
2022/12/06 10:27:10;;;;;;;3.53;0.90;;;23.40;38.90;;;;;;4989596;28;20050;-61
2022/12/06 10:29:48;;;;;;;4.68;0.80;;;23.40;39.50;;;;;;4983400;28;20042;-63
2022/12/06 10:32:48;;;;;;;1.38;0.80;;;23.40;38.80;;;;;;4987651;28;20130;-61
2022/12/06 10:35:20;;;;;;;1.55;0.85;;;23.40;38.70;;;;;;4982849;28;20062;-60
2022/12/06 10:37:55;;;;;;;3.30;0.75;;;23.40;38.70;;;;;;4986391;28;20046;-61
2022/12/06 10:40:34;;;;;;;3.83;0.63;;;23.50;38.60;;;;;;4987734;28;20046;-61
2022/12/06 10:43:16;;;;;;;2.22;0.70;;;23.50;38.80;;;;;;4984494;28;20056;-61
2022/12/06 10:48:38;;;;;;;1.13;0.63;;;23.50;38.50;;;;;;4986173;28;20057;-61
2022/12/06 10:51:13;;;;;;;2.95;1.13;;;23.50;38.50;;;;;;4988617;28;20053;-60
2022/12/06 10:53:50;;;;;;;2.65;1.00;;;23.50;38.40;;;;;;4987567;28;20069;-60
2022/12/06 10:56:37;;;;;;;2.60;0.77;;;23.50;38.30;;;;;;4987242;28;20058;-60
2022/12/06 10:59:17;;;;;;;0.82;0.60;;;23.50;38.20;;;;;;4985824;28;20046;-61
2022/12/06 11:01:44;;;;;;;1.63;0.82;;;23.50;38.30;;;;;;4986760;28;20464;-60
2022/12/06 11:04:36;;;;;;;2.47;0.88;;;23.50;38.30;;;;;;4986692;28;20108;-60
2022/12/06 11:07:12;;;;;;;1.23;0.68;;;23.60;38.00;;;;;;4987113;28;20081;-60
2022/12/06 11:09:42;;;;;;;1.05;0.60;;;23.60;38.00;;;;;;4987030;28;20048;-60
2022/12/06 11:12:31;;;;;;;4.72;0.95;;;23.50;38.10;;;;;;4986008;28;20537;-61
2022/12/06 11:15:16;;;;;;;3.63;0.75;;;23.60;38.00;;;;;;4988732;28;20536;-61
2022/12/06 11:17:46;;;;;;;1.10;0.77;;;23.60;38.00;;;;;;4989612;28;20045;-61
2022/12/06 11:20:32;;;;;;;1.52;0.73;;;23.60;38.80;;;;;;4987543;28;20132;-61
2022/12/06 11:23:28;;;;;;;1.77;0.90;;;23.60;37.90;;;;;;4985721;28;20438;-61
2022/12/06 11:26:36;;;;;;;2.33;0.77;;;23.60;37.90;;;;;;4987635;28;20046;-61
2022/12/06 11:29:06;;;;;;;4.30;1.00;;;23.60;37.70;;;;;;4966222;28;20053;-61
2022/12/06 11:31:50;;;;;;;0.80;0.70;;;23.60;37.90;;;;;;4966725;28;20517;-60
2022/12/06 11:34:30;;;;;;;1.48;0.60;;;23.60;37.80;;;;;;4972309;28;20149;-60
2022/12/06 11:36:57;;;;;;;2.90;0.77;;;23.60;37.70;;;;;;4990014;28;20116;-61
2022/12/06 11:39:23;;;;;;;0.80;0.80;;;23.60;37.70;;;;;;4982448;28;20060;-60
2022/12/06 11:41:53;;;;;;;0.68;0.60;;;23.60;37.70;;;;;;4985980;28;20042;-61
2022/12/06 11:44:28;;;;;;;2.17;0.57;;;23.60;37.60;;;;;;4988532;28;20597;-61
2022/12/06 11:47:00;;;;;;;1.13;0.80;;;23.60;37.70;;;;;;4989457;28;20045;-61
2022/12/06 11:49:37;;;;;;;2.22;0.63;;;23.60;37.80;;;;;;4989188;28;20490;-60
2022/12/06 11:52:09;;;;;;;3.13;0.80;;;23.60;37.80;;;;;;4992037;28;20502;-61
2022/12/06 11:54:42;;;;;;;1.35;0.70;;;23.60;37.80;;;;;;4991175;28;20161;-61
2022/12/06 11:57:20;;;;;;;1.48;0.60;;;23.60;37.90;;;;;;4991061;28;20689;-60
2022/12/06 12:00:15;;;;;;;0.60;0.60;;;23.70;37.80;;;;;;4991777;28;20045;-61
2022/12/06 12:02:42;;;;;;;0.45;0.43;;;23.70;37.70;;;;;;4988812;28;20559;-61
2022/12/06 12:05:19;;;;;;;1.20;0.75;;;23.70;37.70;;;;;;4987814;28;20049;-61
2022/12/06 12:07:55;;;;;;;1.95;0.73;;;23.70;37.70;;;;;;4990826;28;20053;-61
2022/12/06 12:10:33;;;;;;;1.70;0.70;;;23.70;37.60;;;;;;4990824;28;20493;-61
2022/12/06 12:16:03;;;;;;;0.60;0.50;;;23.70;37.50;;;;;;4991734;28;20105;-60
2022/12/06 12:18:36;;;;;;;1.38;0.68;;;23.80;37.60;;;;;;4987413;28;20947;-62
2022/12/06 12:21:03;;;;;;;1.58;0.77;;;23.80;37.60;;;;;;4992941;28;20069;-60
2022/12/06 12:23:41;;;;;;;1.13;0.70;;;23.70;37.50;;;;;;4990343;28;21070;-61
2022/12/06 12:26:11;;;;;;;2.60;0.70;;;23.70;37.50;;;;;;4991890;28;20057;-60
2022/12/06 12:28:38;;;;;;;1.80;0.57;;;23.60;37.60;;;;;;4989707;28;20046;-62
2022/12/06 12:31:24;;;;;;;1.70;0.65;;;23.60;37.70;;;;;;4991848;28;20408;-60
2022/12/06 12:34:17;;;;;;;0.98;0.50;;;23.60;37.60;;;;;;4989683;28;20096;-60
2022/12/06 12:37:19;;;;;;;2.10;0.70;;;23.70;37.70;;;;;;4992784;28;20108;-61
2022/12/06 12:39:52;;;;;;;1.17;0.47;;;23.70;37.90;;;;;;4986051;28;20085;-60
2022/12/06 12:42:30;;;;;;;1.60;0.60;;;23.70;37.90;;;;;;4993811;28;20065;-60
2022/12/06 12:44:59;;;;;;;2.92;0.55;;;23.70;37.90;;;;;;4990212;28;20045;-60
2022/12/06 12:47:24;;;;;;;2.13;0.70;;;23.70;37.80;;;;;;4994187;28;20054;-61
2022/12/06 12:50:30;;;;;;;2.50;0.70;;;23.80;37.80;;;;;;4993367;28;20408;-61
2022/12/06 12:52:56;;;;;;;0.70;0.70;;;23.70;37.70;;;;;;4989651;28;20494;-61
2022/12/06 12:55:26;;;;;;;2.50;0.90;;;23.70;37.90;;;;;;4990829;28;20121;-60
2022/12/06 12:57:55;;;;;;;2.90;0.75;;;23.60;38.00;;;;;;4994125;28;20469;-60
2022/12/06 13:00:28;;;;;;;0.82;0.70;;;23.60;38.10;;;;;;4994353;28;20042;-61
2022/12/06 13:03:09;;;;;;;1.00;0.57;;;23.70;38.20;;;;;;4991860;28;20045;-61
2022/12/06 13:05:36;;;;;;;4.07;0.80;;;23.70;38.20;;;;;;4993287;28;20615;-61
2022/12/06 13:08:11;;;;;;;0.98;0.63;;;23.70;38.30;;;;;;4994366;28;20053;-61
2022/12/06 13:10:38;;;;;;;1.30;0.80;;;23.70;38.20;;;;;;4993610;28;20141;-61
2022/12/06 13:13:20;;;;;;;0.47;0.40;;;23.80;38.30;;;;;;4992470;28;20042;-61
2022/12/06 13:15:49;;;;;;;0.93;0.60;;;23.80;38.20;;;;;;4994748;28;20091;-61
2022/12/06 13:18:34;;;;;;;0.85;0.60;;;23.80;38.10;;;;;;4994081;28;20121;-61
2022/12/06 13:21:05;;;;;;;1.20;0.80;;;23.80;37.90;;;;;;4992747;28;20073;-61
2022/12/06 13:23:35;;;;;;;1.10;0.60;;;23.80;38.00;;;;;;4991364;28;20108;-61
2022/12/06 13:26:05;;;;;;;0.90;0.63;;;23.80;37.90;;;;;;4992199;28;20038;-61
2022/12/06 13:28:38;;;;;;;2.13;0.70;;;23.80;37.90;;;;;;4996008;28;20037;-61
2022/12/06 13:31:14;;;;;;;1.85;0.70;;;23.80;37.80;;;;;;4992665;28;20076;-61
2022/12/06 13:33:47;;;;;;;6.22;0.95;;;23.80;37.70;;;;;;4992510;28;20038;-61
2022/12/06 13:36:14;;;;;;;1.30;0.50;;;23.80;37.60;;;;;;4989831;28;20049;-61
2022/12/06 13:38:42;;;;;;;2.28;0.70;;;23.90;37.60;;;;;;4993167;28;20489;-61
2022/12/06 13:42:16;;;;;;;1.35;0.60;;;23.90;37.60;;;;;;4993492;28;20040;-61